Terminal Aerodrome Forecast
Issued by NWS Goodland, KS

Home | Current Version | Previous Version | Text Only | Print | Product List | Glossary On
Versions: 1 2 3 4 5 6 7 8 9 10 11 12 13 14 15 16 17 18 19
299
FTUS43 KGLD 271137
TAFGLD
TAF
KGLD 271137Z 2712/2812 27006KT P6SM FEW200
     FM271800 16008KT P6SM SCT250
     FM280000 14013KT P6SM BKN200
     FM280600 13015G23KT P6SM BKN050
     FM280900 13014KT P6SM VCSH OVC020=

USA.gov is the U.S. government's official web portal to all federal, state and local government web resources and services.